createdAt,value
2022-11-13T00:00:16.061Z,76.81
2022-11-13T00:02:43.689Z,76.99
2022-11-13T00:05:11.329Z,77.04
2022-11-13T00:07:38.983Z,76.89
2022-11-13T00:10:07.581Z,77.50
2022-11-13T00:12:36.530Z,77.42
2022-11-13T00:15:04.439Z,77.38
2022-11-13T00:17:32.063Z,77.41
2022-11-13T00:19:59.670Z,77.48
2022-11-13T00:22:27.273Z,77.67
2022-11-13T00:24:54.985Z,77.72
2022-11-13T00:27:23.352Z,77.55
2022-11-13T00:29:52.308Z,76.96
2022-11-13T00:32:20.425Z,77.02
2022-11-13T00:34:48.667Z,76.60
2022-11-13T00:37:16.423Z,76.73
2022-11-13T00:39:44.025Z,76.26
2022-11-13T00:42:11.577Z,76.30
2022-11-13T00:44:39.196Z,76.30
2022-11-13T00:47:08.173Z,76.55
2022-11-13T00:49:35.739Z,76.73
2022-11-13T00:52:03.904Z,76.85
2022-11-13T00:54:31.642Z,77.13
2022-11-13T00:56:59.397Z,76.97
2022-11-13T00:59:26.968Z,77.27
2022-11-13T01:01:54.541Z,77.38
2022-11-13T01:04:23.558Z,77.10
2022-11-13T01:06:51.211Z,76.69
2022-11-13T01:09:18.922Z,76.50
2022-11-13T01:11:46.460Z,76.37
2022-11-13T01:14:14.109Z,76.18
2022-11-13T01:16:41.702Z,76.44
2022-11-13T01:19:09.271Z,76.82
2022-11-13T01:21:38.185Z,77.05
2022-11-13T01:24:06.225Z,75.34
2022-11-13T01:26:33.869Z,74.97
2022-11-13T01:29:01.693Z,74.83
2022-11-13T01:31:30.957Z,75.43
2022-11-13T01:33:59.150Z,75.71
2022-11-13T01:36:29.308Z,76.33
2022-11-13T01:38:58.589Z,76.56
2022-11-13T01:41:27.971Z,76.74
2022-11-13T01:43:56.612Z,77.11
2022-11-13T01:46:29.725Z,77.40
2022-11-13T01:49:03.472Z,77.52
2022-11-13T01:51:34.872Z,77.35
2022-11-13T01:54:07.107Z,77.82
2022-11-13T01:56:34.832Z,77.61
2022-11-13T01:59:07.961Z,77.31
2022-11-13T02:01:36.278Z,77.26
2022-11-13T02:04:04.120Z,76.96
2022-11-13T02:06:43.276Z,77.27
2022-11-13T02:09:13.826Z,77.28
2022-11-13T02:11:42.327Z,75.67
2022-11-13T02:14:10.852Z,75.42
2022-11-13T02:16:40.515Z,75.66
2022-11-13T02:19:14.174Z,75.58
2022-11-13T02:21:48.751Z,75.75
2022-11-13T02:24:23.953Z,76.39
2022-11-13T02:26:53.125Z,76.61
2022-11-13T02:29:20.703Z,76.13
2022-11-13T02:31:48.317Z,75.09
2022-11-13T02:34:15.960Z,75.49
2022-11-13T02:36:43.867Z,76.01
2022-11-13T02:39:13.526Z,76.38
2022-11-13T02:41:42.513Z,76.72
2022-11-13T02:44:10.106Z,76.47
2022-11-13T02:46:38.644Z,76.74
2022-11-13T02:49:06.423Z,77.18
2022-11-13T02:51:34.068Z,76.80
2022-11-13T02:54:01.793Z,76.85
2022-11-13T02:56:29.391Z,76.57
2022-11-13T02:58:58.401Z,76.89
2022-11-13T03:01:26.020Z,76.39
2022-11-13T03:03:58.120Z,76.46
2022-11-13T03:06:26.094Z,76.69
2022-11-13T03:08:53.720Z,76.44
2022-11-13T03:11:21.448Z,76.90
2022-11-13T03:13:49.061Z,77.02
2022-11-13T03:16:18.575Z,77.06
2022-11-13T03:18:46.176Z,77.17
2022-11-13T03:21:16.374Z,76.91
2022-11-13T03:23:45.515Z,76.73
2022-11-13T03:26:15.404Z,76.63
2022-11-13T03:28:43.044Z,76.47
2022-11-13T03:31:10.611Z,76.66
2022-11-13T03:33:40.065Z,75.62
2022-11-13T03:36:08.431Z,75.82
2022-11-13T03:38:36.531Z,76.17
2022-11-13T03:41:04.320Z,75.49
2022-11-13T03:43:32.084Z,75.25
2022-11-13T03:45:59.710Z,74.99
2022-11-13T03:48:27.764Z,74.62
2022-11-13T03:50:57.183Z,74.49
2022-11-13T03:53:24.793Z,74.34
2022-11-13T03:55:52.569Z,74.77
2022-11-13T03:58:20.670Z,74.77
2022-11-13T04:00:49.067Z,74.58
2022-11-13T04:03:17.016Z,74.49
2022-11-13T04:05:44.698Z,74.33
2022-11-13T04:08:13.622Z,74.29
2022-11-13T04:10:41.245Z,73.82
2022-11-13T04:13:09.456Z,73.84
2022-11-13T04:15:37.113Z,73.90
2022-11-13T04:18:05.170Z,73.79
2022-11-13T04:20:32.853Z,73.80
2022-11-13T04:23:00.433Z,73.73
2022-11-13T04:25:29.320Z,73.81
2022-11-13T04:27:56.967Z,73.45
2022-11-13T04:30:24.522Z,73.18
2022-11-13T04:32:52.086Z,73.18
2022-11-13T04:35:19.922Z,72.96
2022-11-13T04:37:47.587Z,72.77
2022-11-13T04:40:15.279Z,72.86
2022-11-13T04:42:49.322Z,71.50
2022-11-13T04:45:18.081Z,71.46
2022-11-13T04:47:46.503Z,71.16
2022-11-13T04:50:15.480Z,71.74
2022-11-13T04:52:43.592Z,72.18
2022-11-13T04:55:12.313Z,71.44
2022-11-13T04:57:40.212Z,71.63
2022-11-13T05:00:10.798Z,71.75
2022-11-13T05:02:39.034Z,71.00
2022-11-13T05:05:07.004Z,69.43
2022-11-13T05:07:34.620Z,69.88
2022-11-13T05:10:02.183Z,70.85
2022-11-13T05:12:29.854Z,71.82
2022-11-13T05:14:57.479Z,71.86
2022-11-13T05:17:26.514Z,72.46
2022-11-13T05:19:54.125Z,71.66
2022-11-13T05:22:21.726Z,70.60
2022-11-13T05:24:49.327Z,70.46
2022-11-13T05:27:17.740Z,70.63
2022-11-13T05:29:45.709Z,70.48
2022-11-13T05:32:13.326Z,70.45
2022-11-13T05:34:42.298Z,69.73
2022-11-13T05:37:09.982Z,70.27
2022-11-13T05:39:37.631Z,71.08
2022-11-13T05:42:05.654Z,71.38
2022-11-13T05:44:33.232Z,70.97
2022-11-13T05:47:00.891Z,68.27
2022-11-13T05:49:28.520Z,68.05
2022-11-13T05:51:57.477Z,69.12
2022-11-13T05:54:25.111Z,69.91
2022-11-13T05:56:52.703Z,70.62
2022-11-13T05:59:20.398Z,71.10
2022-11-13T06:01:48.168Z,71.66
2022-11-13T06:04:15.794Z,72.13
2022-11-13T06:06:43.477Z,72.34
2022-11-13T06:09:16.282Z,72.77
2022-11-13T06:11:44.248Z,72.94
2022-11-13T06:14:12.008Z,73.21
2022-11-13T06:16:40.327Z,73.25
2022-11-13T06:19:13.180Z,72.87
2022-11-13T06:21:41.695Z,72.71
2022-11-13T06:24:11.733Z,71.37
2022-11-13T06:26:40.923Z,71.68
2022-11-13T06:29:11.900Z,71.87
2022-11-13T06:31:39.527Z,71.78
2022-11-13T06:34:07.662Z,71.87
2022-11-13T06:36:36.998Z,71.14
2022-11-13T06:39:07.261Z,71.89
2022-11-13T06:41:35.144Z,72.19
2022-11-13T06:44:07.242Z,72.64
2022-11-13T06:46:34.809Z,72.56
2022-11-13T06:49:03.028Z,72.64
2022-11-13T06:51:32.343Z,72.61
2022-11-13T06:53:59.945Z,72.93
2022-11-13T06:56:27.876Z,72.93
2022-11-13T06:58:56.737Z,73.03
2022-11-13T07:01:27.040Z,72.74
2022-11-13T07:03:55.193Z,73.17
2022-11-13T07:06:24.778Z,72.88
2022-11-13T07:08:53.060Z,73.12
2022-11-13T07:11:22.712Z,73.15
2022-11-13T07:13:51.045Z,72.80
2022-11-13T07:16:19.137Z,73.12
2022-11-13T07:18:52.172Z,73.07
2022-11-13T07:21:20.763Z,73.51
2022-11-13T07:23:49.582Z,73.58
2022-11-13T07:26:17.411Z,73.46
2022-11-13T07:28:45.415Z,73.75
2022-11-13T07:31:14.797Z,73.48
2022-11-13T07:33:44.419Z,73.64
2022-11-13T07:36:13.469Z,73.37
2022-11-13T07:38:41.105Z,73.48
2022-11-13T07:41:08.880Z,73.40
2022-11-13T07:43:36.749Z,73.13
2022-11-13T07:46:04.603Z,73.63
2022-11-13T07:48:32.546Z,72.33
2022-11-13T07:51:01.804Z,72.53
2022-11-13T07:53:31.053Z,72.35
2022-11-13T07:56:01.930Z,72.67
2022-11-13T07:58:35.561Z,72.90
2022-11-13T08:01:05.218Z,73.52
2022-11-13T08:03:33.785Z,73.77
2022-11-13T08:06:03.435Z,72.90
2022-11-13T08:08:32.558Z,72.97
2022-11-13T08:11:00.319Z,73.12
2022-11-13T08:13:27.918Z,72.73
2022-11-13T08:15:55.589Z,72.21
2022-11-13T08:18:23.186Z,72.13
2022-11-13T08:20:50.771Z,72.35
2022-11-13T08:23:18.346Z,72.57
2022-11-13T08:25:49.497Z,72.75
2022-11-13T08:28:21.473Z,73.09
2022-11-13T08:30:49.193Z,73.50
2022-11-13T08:33:16.837Z,73.90
2022-11-13T08:35:58.845Z,74.30
2022-11-13T08:38:28.259Z,74.40
2022-11-13T08:41:32.593Z,73.54
2022-11-13T08:44:10.853Z,72.97
2022-11-13T08:46:38.606Z,72.64
2022-11-13T08:49:06.303Z,71.62
2022-11-13T08:51:33.997Z,71.65
2022-11-13T08:54:04.418Z,70.62
2022-11-13T08:56:33.379Z,70.45
2022-11-13T08:59:00.995Z,69.83
2022-11-13T09:01:28.663Z,70.68
2022-11-13T09:03:59.154Z,71.57
2022-11-13T09:06:26.904Z,71.90
2022-11-13T09:08:54.931Z,71.39
2022-11-13T09:11:22.712Z,70.91
2022-11-13T09:13:55.120Z,71.08
2022-11-13T09:16:22.890Z,71.35
2022-11-13T09:18:50.858Z,70.02
2022-11-13T09:21:18.739Z,70.52
2022-11-13T09:23:46.679Z,71.07
2022-11-13T09:26:16.943Z,70.63
2022-11-13T09:28:44.892Z,70.99
2022-11-13T09:31:13.920Z,70.92
2022-11-13T09:33:41.662Z,71.02
2022-11-13T09:36:12.253Z,70.26
2022-11-13T09:38:40.062Z,70.80
2022-11-13T09:41:11.377Z,70.24
2022-11-13T09:43:43.902Z,71.87
2022-11-13T09:46:18.603Z,71.22
2022-11-13T09:48:51.950Z,70.87
2022-11-13T09:51:23.189Z,70.49
2022-11-13T09:53:51.134Z,70.26
2022-11-13T09:56:29.810Z,70.24
2022-11-13T09:59:07.157Z,69.77
2022-11-13T10:01:48.515Z,70.00
2022-11-13T10:04:23.149Z,70.52
2022-11-13T10:07:01.559Z,69.32
2022-11-13T10:09:51.472Z,69.60
2022-11-13T10:12:22.879Z,69.67
2022-11-13T10:14:55.712Z,69.72
2022-11-13T10:17:29.855Z,69.79
2022-11-13T10:20:00.237Z,69.47
2022-11-13T10:22:34.603Z,69.34
2022-11-13T10:25:12.689Z,69.78
2022-11-13T10:27:40.515Z,70.47
2022-11-13T10:30:15.175Z,70.84
2022-11-13T10:32:45.330Z,71.06
2022-11-13T10:35:29.251Z,71.07
2022-11-13T10:38:08.134Z,70.25
2022-11-13T10:40:39.361Z,69.59
2022-11-13T10:43:14.238Z,69.83
2022-11-13T10:45:42.002Z,70.39
2022-11-13T10:48:22.117Z,70.96
2022-11-13T10:50:58.478Z,71.38
2022-11-13T10:53:28.375Z,71.68
2022-11-13T10:55:58.853Z,71.87
2022-11-13T10:58:27.119Z,71.76
2022-11-13T11:00:55.054Z,71.82
2022-11-13T11:03:43.578Z,71.69
2022-11-13T11:06:11.310Z,71.87
2022-11-13T11:08:38.946Z,71.91
2022-11-13T11:11:31.625Z,72.29
2022-11-13T11:14:06.480Z,72.36
2022-11-13T11:16:34.260Z,71.90
2022-11-13T11:19:05.981Z,72.53
2022-11-13T11:21:36.377Z,72.07
2022-11-13T11:24:11.585Z,72.11
2022-11-13T11:26:44.248Z,71.86
2022-11-13T11:29:19.314Z,72.31
2022-11-13T11:31:53.869Z,72.27
2022-11-13T11:34:28.218Z,71.99
2022-11-13T11:37:02.113Z,72.19
2022-11-13T11:39:45.356Z,72.48
2022-11-13T11:42:23.648Z,72.25
2022-11-13T11:45:01.187Z,71.83
2022-11-13T11:47:29.225Z,71.66
2022-11-13T11:49:58.182Z,71.46
2022-11-13T11:52:38.800Z,71.62
2022-11-13T11:55:20.894Z,72.06
2022-11-13T11:57:56.481Z,72.14
2022-11-13T12:00:24.227Z,71.77
2022-11-13T12:03:19.515Z,72.00
2022-11-13T12:06:03.398Z,71.70
2022-11-13T12:08:40.694Z,71.52
2022-11-13T12:11:17.772Z,71.30
2022-11-13T12:13:54.539Z,71.28
2022-11-13T12:16:27.436Z,71.31
2022-11-13T12:19:03.926Z,71.12
2022-11-13T12:21:45.173Z,71.13
2022-11-13T12:24:32.693Z,71.07
2022-11-13T12:27:16.631Z,71.21
2022-11-13T12:30:00.549Z,71.38
2022-11-13T12:32:44.062Z,71.09
2022-11-13T12:35:17.620Z,71.62
2022-11-13T12:37:51.005Z,71.51
2022-11-13T12:40:28.418Z,71.19
2022-11-13T12:43:04.204Z,71.06
2022-11-13T12:45:51.709Z,70.97
2022-11-13T12:48:28.899Z,71.02
2022-11-13T12:54:31.738Z,70.82
2022-11-13T12:57:36.615Z,70.76
2022-11-13T13:00:31.254Z,71.44
2022-11-13T13:03:16.569Z,73.32
2022-11-13T13:06:00.707Z,72.18
2022-11-13T13:08:47.662Z,71.51
2022-11-13T13:11:20.839Z,72.53
2022-11-13T13:13:59.309Z,72.35
2022-11-13T13:16:29.294Z,72.06
2022-11-13T13:19:07.879Z,72.26
2022-11-13T13:21:42.437Z,72.54
2022-11-13T13:24:26.619Z,73.23
2022-11-13T13:26:55.850Z,72.85
2022-11-13T13:29:26.125Z,72.72
2022-11-13T13:31:58.469Z,71.94
2022-11-13T13:34:36.979Z,71.71
2022-11-13T13:37:11.986Z,71.03
2022-11-13T13:40:01.472Z,70.63
2022-11-13T13:42:51.030Z,70.11
2022-11-13T13:45:32.480Z,68.55
2022-11-13T13:48:01.483Z,67.40
2022-11-13T13:50:32.060Z,66.34
2022-11-13T13:53:01.034Z,65.05
2022-11-13T13:55:33.662Z,63.22
2022-11-13T13:58:05.813Z,62.02
2022-11-13T14:00:34.322Z,61.63
2022-11-13T14:03:03.351Z,60.73
2022-11-13T14:05:34.249Z,60.74
2022-11-13T14:08:07.302Z,60.28
2022-11-13T14:10:37.422Z,60.43
2022-11-13T14:13:06.359Z,61.26
2022-11-13T14:15:35.765Z,61.49
2022-11-13T14:18:08.632Z,61.84
2022-11-13T14:20:44.983Z,62.37
2022-11-13T14:23:16.217Z,63.05
2022-11-13T14:25:45.391Z,63.36
2022-11-13T14:28:17.056Z,64.13
2022-11-13T14:30:45.131Z,64.40
2022-11-13T14:33:17.361Z,64.51
2022-11-13T14:35:52.927Z,65.17
2022-11-13T14:38:23.804Z,65.60
2022-11-13T14:40:51.757Z,66.08
2022-11-13T14:43:24.842Z,66.32
2022-11-13T14:45:58.404Z,67.00
2022-11-13T14:48:28.130Z,67.29
2022-11-13T14:50:58.220Z,67.77
2022-11-13T14:53:32.240Z,68.38
2022-11-13T14:56:02.407Z,68.23
2022-11-13T14:58:34.526Z,68.49
2022-11-13T15:01:15.220Z,68.79
2022-11-13T15:03:43.691Z,69.13
2022-11-13T15:06:15.536Z,69.02
2022-11-13T15:08:44.126Z,69.28
2022-11-13T15:11:15.025Z,69.37
2022-11-13T15:13:44.713Z,69.75
2022-11-13T15:16:16.468Z,69.94
2022-11-13T15:18:48.271Z,69.99
2022-11-13T15:21:16.033Z,69.91
2022-11-13T15:23:43.646Z,70.14
2022-11-13T15:26:12.022Z,70.51
2022-11-13T15:28:39.892Z,70.75
2022-11-13T15:31:19.805Z,70.64
2022-11-13T15:33:48.173Z,70.70
2022-11-13T15:36:16.389Z,70.92
2022-11-13T15:38:43.968Z,71.03
2022-11-13T15:41:16.510Z,71.26
2022-11-13T15:43:46.534Z,71.31
2022-11-13T15:46:17.869Z,71.20
2022-11-13T15:48:45.655Z,71.32
2022-11-13T15:51:18.194Z,71.46
2022-11-13T15:53:46.355Z,71.69
2022-11-13T15:56:14.006Z,71.89
2022-11-13T15:58:41.737Z,71.89
2022-11-13T16:01:10.600Z,71.85
2022-11-13T16:03:40.504Z,71.98
2022-11-13T16:06:12.319Z,72.00
2022-11-13T16:08:39.933Z,72.12
2022-11-13T16:11:07.719Z,71.99
2022-11-13T16:13:35.342Z,72.37
2022-11-13T16:16:03.106Z,72.41
2022-11-13T16:18:32.107Z,72.33
2022-11-13T16:21:01.044Z,72.31
2022-11-13T16:23:28.800Z,72.49
2022-11-13T16:25:56.591Z,72.34
2022-11-13T16:28:24.151Z,72.52
2022-11-13T16:30:51.933Z,72.57
2022-11-13T16:33:19.523Z,72.70
2022-11-13T16:35:47.180Z,73.22
2022-11-13T16:38:16.143Z,73.28
2022-11-13T16:40:45.506Z,72.70
2022-11-13T16:43:13.286Z,73.05
2022-11-13T16:45:40.982Z,72.80
2022-11-13T16:48:13.883Z,72.91
2022-11-13T16:50:42.269Z,73.20
2022-11-13T16:53:10.655Z,73.19
2022-11-13T16:55:39.647Z,72.99
2022-11-13T16:58:07.269Z,72.79
2022-11-13T17:00:36.147Z,73.09
2022-11-13T17:03:03.743Z,73.08
2022-11-13T17:05:31.344Z,72.87
2022-11-13T17:08:00.177Z,72.48
2022-11-13T17:10:32.648Z,72.68
2022-11-13T17:13:02.182Z,73.38
2022-11-13T17:15:29.802Z,73.15
2022-11-13T17:17:58.077Z,72.89
2022-11-13T17:20:25.814Z,72.37
2022-11-13T17:22:53.358Z,72.05
2022-11-13T17:25:23.296Z,73.17
2022-11-13T17:27:50.917Z,73.73
2022-11-13T17:30:20.309Z,73.91
2022-11-13T17:32:47.893Z,74.02
2022-11-13T17:35:15.522Z,74.27
2022-11-13T17:37:43.149Z,74.43
2022-11-13T17:40:12.685Z,74.63
2022-11-13T17:42:41.801Z,74.81
2022-11-13T17:45:10.308Z,74.07
2022-11-13T17:47:39.219Z,72.72
2022-11-13T17:50:08.040Z,72.29
2022-11-13T17:52:35.721Z,73.05
2022-11-13T17:55:05.950Z,73.85
2022-11-13T17:57:34.239Z,73.41
2022-11-13T18:00:01.883Z,71.94
2022-11-13T18:02:29.603Z,71.42
2022-11-13T18:05:01.129Z,71.37
2022-11-13T18:07:29.003Z,72.48
2022-11-13T18:09:56.859Z,72.19
2022-11-13T18:12:24.502Z,72.05
2022-11-13T18:14:53.194Z,71.34
2022-11-13T18:17:22.060Z,71.01
2022-11-13T18:19:50.462Z,70.69
2022-11-13T18:22:19.567Z,70.46
2022-11-13T18:24:47.179Z,70.49
2022-11-13T18:27:15.122Z,70.45
2022-11-13T18:29:42.686Z,70.79
2022-11-13T18:32:10.300Z,71.81
2022-11-13T18:34:37.886Z,72.50
2022-11-13T18:37:05.517Z,71.82
2022-11-13T18:39:34.498Z,71.03
2022-11-13T18:42:02.041Z,70.97
2022-11-13T18:44:29.823Z,71.24
2022-11-13T18:46:57.473Z,71.64
2022-11-13T18:49:25.094Z,71.83
2022-11-13T18:51:52.667Z,72.17
2022-11-13T18:54:20.525Z,73.43
2022-11-13T18:56:49.869Z,73.40
2022-11-13T18:59:17.640Z,73.60
2022-11-13T19:01:45.444Z,72.92
2022-11-13T19:04:23.623Z,72.58
2022-11-13T19:06:52.038Z,72.24
2022-11-13T19:09:20.051Z,71.84
2022-11-13T19:11:50.203Z,72.39
2022-11-13T19:14:19.112Z,71.89
2022-11-13T19:16:46.805Z,72.08
2022-11-13T19:19:19.220Z,72.25
2022-11-13T19:21:47.561Z,71.87
2022-11-13T19:24:15.520Z,71.67
2022-11-13T19:26:44.136Z,72.35
2022-11-13T19:29:13.763Z,73.08
2022-11-13T19:31:41.668Z,73.36
2022-11-13T19:34:09.767Z,73.04
2022-11-13T19:36:37.979Z,72.93
2022-11-13T19:39:06.094Z,73.09
2022-11-13T19:41:33.969Z,73.18
2022-11-13T19:44:01.600Z,72.49
2022-11-13T19:46:31.942Z,72.57
2022-11-13T19:48:59.639Z,71.87
2022-11-13T19:51:27.662Z,71.66
2022-11-13T19:53:56.581Z,72.36
2022-11-13T19:56:25.525Z,73.18
2022-11-13T19:58:53.774Z,72.91
2022-11-13T20:01:23.029Z,73.11
2022-11-13T20:03:56.056Z,73.21
2022-11-13T20:06:24.075Z,72.86
2022-11-13T20:08:51.815Z,73.42
2022-11-13T20:11:19.419Z,73.53
2022-11-13T20:13:47.235Z,73.59
2022-11-13T20:16:16.921Z,73.38
2022-11-13T20:18:45.455Z,73.77
2022-11-13T20:21:14.601Z,73.94
2022-11-13T20:23:42.269Z,74.31
2022-11-13T20:26:13.553Z,74.44
2022-11-13T20:28:41.233Z,74.20
2022-11-13T20:31:14.209Z,74.07
2022-11-13T20:33:41.806Z,74.11
2022-11-13T20:36:09.722Z,74.23
2022-11-13T20:38:39.726Z,74.23
2022-11-13T20:41:10.482Z,74.46
2022-11-13T20:43:38.266Z,74.27
2022-11-13T20:46:08.436Z,74.08
2022-11-13T20:48:36.103Z,73.93
2022-11-13T20:51:08.716Z,74.63
2022-11-13T20:53:37.740Z,74.21
2022-11-13T20:56:07.444Z,74.76
2022-11-13T20:58:35.874Z,74.34
2022-11-13T21:01:04.784Z,73.30
2022-11-13T21:03:34.935Z,73.59
2022-11-13T21:06:07.006Z,73.70
2022-11-13T21:08:34.925Z,74.64
2022-11-13T21:11:05.902Z,75.30
2022-11-13T21:13:34.033Z,75.27
2022-11-13T21:16:05.920Z,75.42
2022-11-13T21:18:33.556Z,75.80
2022-11-13T21:21:05.496Z,74.94
2022-11-13T21:23:33.158Z,76.27
2022-11-13T21:26:01.365Z,77.06
2022-11-13T21:28:33.702Z,77.09
2022-11-13T21:31:03.735Z,77.49
2022-11-13T21:33:36.177Z,77.72
2022-11-13T21:36:08.084Z,77.78
2022-11-13T21:38:35.830Z,77.58
2022-11-13T21:41:24.845Z,77.70
2022-11-13T21:43:57.953Z,77.51
2022-11-13T21:46:27.285Z,78.00
2022-11-13T21:48:59.666Z,77.72
2022-11-13T21:51:27.628Z,78.10
2022-11-13T21:53:55.392Z,77.76
2022-11-13T21:56:23.443Z,77.64
2022-11-13T21:58:51.207Z,77.53
2022-11-13T22:01:20.957Z,77.52
2022-11-13T22:03:49.705Z,77.25
2022-11-13T22:06:20.345Z,76.76
2022-11-13T22:08:54.624Z,76.65
2022-11-13T22:11:22.511Z,76.25
2022-11-13T22:13:50.115Z,76.19
2022-11-13T22:16:18.039Z,76.69
2022-11-13T22:18:47.007Z,76.08
2022-11-13T22:21:16.419Z,75.63
2022-11-13T22:23:44.008Z,75.95
2022-11-13T22:26:13.947Z,75.59
2022-11-13T22:28:43.282Z,75.24
2022-11-13T22:31:15.118Z,75.03
2022-11-13T22:33:48.171Z,75.20
2022-11-13T22:36:20.540Z,75.32
2022-11-13T22:38:48.684Z,75.30
2022-11-13T22:41:22.936Z,75.30
2022-11-13T22:43:52.799Z,74.90
2022-11-13T22:46:22.407Z,75.06
2022-11-13T22:48:51.510Z,76.07
2022-11-13T22:51:22.390Z,76.57
2022-11-13T22:53:51.954Z,76.48
2022-11-13T22:56:20.844Z,76.67
2022-11-13T22:58:48.582Z,76.43
2022-11-13T23:01:18.123Z,75.46
2022-11-13T23:03:47.433Z,75.68
2022-11-13T23:06:17.514Z,75.00
2022-11-13T23:08:46.711Z,74.19
2022-11-13T23:11:16.204Z,74.59
2022-11-13T23:13:45.629Z,74.22
2022-11-13T23:16:13.970Z,73.94
2022-11-13T23:18:41.906Z,74.78
2022-11-13T23:21:10.705Z,74.76
2022-11-13T23:23:38.524Z,74.93
2022-11-13T23:26:08.881Z,75.57
2022-11-13T23:28:37.377Z,75.45
2022-11-13T23:31:06.018Z,75.16
2022-11-13T23:33:33.856Z,74.75
2022-11-13T23:36:01.823Z,75.52
2022-11-13T23:38:29.839Z,75.13
2022-11-13T23:41:01.701Z,74.47
2022-11-13T23:43:54.311Z,74.54
2022-11-13T23:46:19.151Z,74.51
2022-11-13T23:48:46.728Z,74.11
2022-11-13T23:51:14.331Z,74.20
2022-11-13T23:53:42.003Z,74.28
2022-11-13T23:56:09.972Z,74.36
2022-11-13T23:58:38.880Z,73.93
